Time;durP1;ratioP1;P1;durP2;ratioP2;P2;SDS_P1;SDS_P2;PMS_P1;PMS_P2;Temp;Humidity;BMP_temperature;BMP_pressure;BME280_temperature;BME280_humidity;BME280_pressure;Samples;Min_cycle;Max_cycle;Signal;HPM_P1;HPM_P2
2023/05/25 00:02:26;;;;;;;1.40;1.40;;;21.00;69.40;;;;;;5087332;27;43406;-69
2023/05/25 00:04:59;;;;;;;1.63;1.63;;;21.10;69.20;;;;;;5079507;27;45646;-69
2023/05/25 00:07:27;;;;;;;1.40;1.40;;;21.20;69.20;;;;;;5087127;27;43451;-69
2023/05/25 00:09:55;;;;;;;1.53;1.53;;;21.10;68.90;;;;;;5085437;27;43481;-69
2023/05/25 00:12:24;;;;;;;1.43;1.43;;;21.10;68.90;;;;;;5087320;28;43670;-69
2023/05/25 00:14:52;;;;;;;1.50;1.50;;;21.00;69.10;;;;;;5087493;28;43749;-70
2023/05/25 00:17:20;;;;;;;1.70;1.60;;;20.90;69.80;;;;;;5087412;27;43486;-70
2023/05/25 00:19:49;;;;;;;1.20;1.20;;;20.90;69.70;;;;;;5086042;27;43382;-70
2023/05/25 00:22:17;;;;;;;1.50;1.50;;;20.90;69.40;;;;;;5086544;28;43412;-70
2023/05/25 00:24:45;;;;;;;1.50;1.50;;;20.80;69.30;;;;;;5087514;27;44000;-70
2023/05/25 00:27:13;;;;;;;1.40;1.40;;;20.80;69.60;;;;;;5087364;28;43354;-70
2023/05/25 00:29:42;;;;;;;1.50;1.50;;;20.80;70.20;;;;;;5085851;28;43365;-70
2023/05/25 00:32:10;;;;;;;1.20;1.20;;;20.80;70.00;;;;;;5088267;27;43435;-69
2023/05/25 00:34:41;;;;;;;1.47;1.47;;;20.90;69.80;;;;;;5085744;28;45556;-69
2023/05/25 00:37:09;;;;;;;1.43;1.43;;;21.00;69.70;;;;;;5087005;27;43393;-70
2023/05/25 00:39:37;;;;;;;1.40;1.40;;;21.00;69.30;;;;;;5087819;27;43387;-70
2023/05/25 00:42:06;;;;;;;1.70;1.70;;;20.90;69.80;;;;;;5087461;28;43428;-71
2023/05/25 00:44:34;;;;;;;1.70;1.70;;;20.90;69.90;;;;;;5087290;27;43723;-69
2023/05/25 00:47:03;;;;;;;1.43;1.43;;;20.90;69.70;;;;;;5089920;27;43319;-69
2023/05/25 00:49:33;;;;;;;1.40;1.40;;;20.90;69.50;;;;;;5087077;27;43390;-69
2023/05/25 00:52:01;;;;;;;1.47;1.47;;;20.80;69.40;;;;;;5088285;27;43546;-69
2023/05/25 00:54:32;;;;;;;1.40;1.40;;;20.80;70.00;;;;;;5088900;27;44103;-70
2023/05/25 00:57:03;;;;;;;1.30;1.30;;;20.80;70.10;;;;;;5086747;27;43441;-70
2023/05/25 00:59:35;;;;;;;1.60;1.60;;;20.80;69.80;;;;;;5087114;27;43979;-69
2023/05/25 01:02:07;;;;;;;1.33;1.33;;;20.80;69.70;;;;;;5087898;27;44329;-69
2023/05/25 01:04:37;;;;;;;1.30;1.30;;;20.70;69.70;;;;;;5088928;28;44955;-69
2023/05/25 01:07:07;;;;;;;1.50;1.50;;;20.70;70.10;;;;;;5089925;28;43411;-69
2023/05/25 01:09:35;;;;;;;1.40;1.40;;;20.70;70.20;;;;;;5090022;27;43489;-70
2023/05/25 01:12:03;;;;;;;1.30;1.30;;;20.70;70.00;;;;;;5090730;27;43492;-71
2023/05/25 01:14:32;;;;;;;1.60;1.60;;;20.70;69.80;;;;;;5088249;28;46017;-70
2023/05/25 01:17:00;;;;;;;1.60;1.60;;;20.70;69.80;;;;;;5082431;27;44963;-70
2023/05/25 01:19:32;;;;;;;1.43;1.43;;;20.70;70.30;;;;;;5088788;28;43371;-71
2023/05/25 01:22:05;;;;;;;1.40;1.40;;;20.70;70.40;;;;;;5088474;28;43986;-70
2023/05/25 01:24:35;;;;;;;1.40;1.40;;;20.80;70.20;;;;;;5083018;28;45769;-70
2023/05/25 01:27:06;;;;;;;1.53;1.53;;;20.90;69.80;;;;;;5087926;28;44372;-70
2023/05/25 01:29:34;;;;;;;1.47;1.47;;;21.00;69.30;;;;;;5089029;28;43924;-69
2023/05/25 01:32:03;;;;;;;1.57;1.57;;;21.10;69.30;;;;;;5088064;28;43470;-70
2023/05/25 01:34:34;;;;;;;1.43;1.43;;;21.10;69.00;;;;;;5088406;27;43941;-70
2023/05/25 01:37:03;;;;;;;1.20;1.20;;;21.00;68.90;;;;;;5089821;27;43412;-70
2023/05/25 01:39:34;;;;;;;1.43;1.43;;;20.90;69.00;;;;;;5088997;28;43560;-70
2023/05/25 01:42:02;;;;;;;1.43;1.43;;;20.90;69.70;;;;;;5088621;27;43593;-69
2023/05/25 01:44:30;;;;;;;1.37;1.37;;;20.80;69.60;;;;;;5088173;28;45362;-69
2023/05/25 01:47:01;;;;;;;1.40;1.40;;;20.80;69.40;;;;;;5090014;27;43448;-68
2023/05/25 01:49:37;;;;;;;1.40;1.40;;;20.80;69.40;;;;;;5087621;27;43470;-69
2023/05/25 01:52:10;;;;;;;1.20;1.20;;;20.70;69.50;;;;;;5089898;27;44021;-69
2023/05/25 01:54:40;;;;;;;1.47;1.47;;;20.70;70.10;;;;;;5089628;27;43595;-69
2023/05/25 01:57:11;;;;;;;1.27;1.27;;;20.70;70.00;;;;;;5088201;27;44433;-70
2023/05/25 01:59:39;;;;;;;1.57;1.57;;;20.70;69.80;;;;;;5088126;28;43568;-69
2023/05/25 02:02:07;;;;;;;1.33;1.23;;;20.70;69.70;;;;;;5088340;28;43675;-69
2023/05/25 02:04:35;;;;;;;1.30;1.30;;;20.70;69.80;;;;;;5089262;28;43759;-70
2023/05/25 02:07:04;;;;;;;1.40;1.40;;;20.60;70.10;;;;;;5088009;28;43798;-70
2023/05/25 02:09:33;;;;;;;1.50;1.50;;;20.70;70.30;;;;;;5068455;28;43425;-70
2023/05/25 02:12:01;;;;;;;1.50;1.50;;;20.80;70.10;;;;;;5087860;27;43486;-69
2023/05/25 02:14:29;;;;;;;1.40;1.40;;;20.90;69.60;;;;;;5083181;28;43586;-70
2023/05/25 02:17:00;;;;;;;1.83;1.40;;;21.00;69.30;;;;;;5086502;28;44463;-70
2023/05/25 02:19:31;;;;;;;1.30;1.30;;;21.10;69.40;;;;;;5082431;28;43934;-70
2023/05/25 02:21:59;;;;;;;1.27;1.27;;;21.00;68.90;;;;;;5089431;28;44097;-70
2023/05/25 02:24:27;;;;;;;1.43;1.43;;;21.00;69.00;;;;;;5082994;28;43867;-69
2023/05/25 02:26:56;;;;;;;1.50;1.50;;;20.90;69.10;;;;;;5089145;28;43445;-70
2023/05/25 02:29:25;;;;;;;1.30;1.30;;;20.80;69.70;;;;;;5088062;28;43406;-70
2023/05/25 02:31:55;;;;;;;1.20;1.20;;;20.80;69.70;;;;;;5088499;27;43435;-70
2023/05/25 02:34:23;;;;;;;1.20;1.20;;;20.80;69.50;;;;;;5086799;28;45768;-70
2023/05/25 02:36:52;;;;;;;1.30;1.30;;;20.80;69.60;;;;;;5087310;28;45005;-70
2023/05/25 02:39:20;;;;;;;1.20;1.20;;;20.70;69.60;;;;;;5088879;28;43947;-70
2023/05/25 02:41:48;;;;;;;1.30;1.30;;;20.70;70.10;;;;;;5087618;27;43406;-70
2023/05/25 02:44:18;;;;;;;1.30;1.30;;;20.70;69.90;;;;;;5086752;28;44744;-69
2023/05/25 02:46:46;;;;;;;1.40;1.40;;;20.70;69.80;;;;;;5091983;27;44432;-70
2023/05/25 02:49:14;;;;;;;1.40;1.40;;;20.70;69.80;;;;;;5088945;27;43906;-69
2023/05/25 02:51:42;;;;;;;1.40;1.40;;;20.60;69.80;;;;;;5088987;27;43339;-70
2023/05/25 02:54:10;;;;;;;1.33;1.33;;;20.60;70.20;;;;;;5082510;28;45547;-70
2023/05/25 02:56:41;;;;;;;1.27;1.27;;;20.70;70.10;;;;;;5087264;28;43447;-69
2023/05/25 02:59:11;;;;;;;1.40;1.40;;;20.80;70.00;;;;;;5088650;28;43413;-70
2023/05/25 03:01:40;;;;;;;1.40;1.40;;;20.90;69.50;;;;;;5083274;27;43446;-69
2023/05/25 03:04:08;;;;;;;1.20;1.20;;;21.00;69.30;;;;;;5086791;28;45999;-70
2023/05/25 03:06:37;;;;;;;1.30;1.30;;;21.00;69.10;;;;;;5087136;28;43785;-69
2023/05/25 03:09:09;;;;;;;1.40;1.40;;;20.90;69.00;;;;;;5087024;28;43879;-70
2023/05/25 03:11:39;;;;;;;1.20;1.20;;;20.80;69.10;;;;;;5087232;27;43584;-69
2023/05/25 03:14:09;;;;;;;1.40;1.40;;;20.80;69.30;;;;;;5086890;28;43940;-69
2023/05/25 03:16:40;;;;;;;1.30;1.30;;;20.80;69.90;;;;;;5086955;27;43717;-69
2023/05/25 03:19:09;;;;;;;1.30;1.30;;;20.80;69.80;;;;;;5086893;28;43435;-70
2023/05/25 03:21:37;;;;;;;1.40;1.40;;;20.70;69.60;;;;;;5088463;27;43900;-69
2023/05/25 03:24:06;;;;;;;1.50;1.50;;;20.70;69.60;;;;;;5085870;27;45548;-69
2023/05/25 03:26:34;;;;;;;1.33;1.33;;;20.70;69.80;;;;;;5088104;27;43992;-70
2023/05/25 03:29:05;;;;;;;1.50;1.50;;;20.60;70.10;;;;;;5086766;27;43413;-69
2023/05/25 03:31:34;;;;;;;1.30;1.20;;;20.60;69.90;;;;;;5082683;27;43478;-70
2023/05/25 03:34:05;;;;;;;1.40;1.40;;;20.60;69.80;;;;;;5087293;27;45892;-69
2023/05/25 03:36:36;;;;;;;1.20;1.20;;;20.60;69.80;;;;;;5085560;28;43955;-69
2023/05/25 03:39:04;;;;;;;1.10;1.10;;;20.60;70.10;;;;;;5086924;28;43945;-70
2023/05/25 03:41:32;;;;;;;1.27;1.27;;;20.60;70.20;;;;;;5086596;27;44322;-70
2023/05/25 03:44:00;;;;;;;1.20;1.20;;;20.70;70.00;;;;;;5087078;28;43543;-70
2023/05/25 03:46:28;;;;;;;1.30;1.30;;;20.80;69.60;;;;;;5086810;28;44304;-70
2023/05/25 03:48:58;;;;;;;1.37;1.37;;;21.00;69.30;;;;;;5086143;28;43503;-70
2023/05/25 03:51:28;;;;;;;1.60;1.60;;;21.00;69.20;;;;;;5088383;27;43411;-69
2023/05/25 03:53:56;;;;;;;1.30;1.30;;;21.00;69.00;;;;;;5087858;27;43610;-69
2023/05/25 03:56:25;;;;;;;1.10;1.10;;;20.90;68.80;;;;;;5087642;27;43412;-70
2023/05/25 03:58:53;;;;;;;1.13;1.13;;;20.80;68.90;;;;;;5087857;27;43442;-70
2023/05/25 04:01:20;;;;;;;1.30;1.30;;;20.80;69.50;;;;;;5086496;28;43443;-70
2023/05/25 04:03:48;;;;;;;1.30;1.30;;;20.80;69.60;;;;;;5079542;28;46085;-70
2023/05/25 04:06:20;;;;;;;1.40;1.40;;;20.80;69.40;;;;;;5086579;28;44685;-69
2023/05/25 04:08:50;;;;;;;1.30;1.30;;;20.70;69.30;;;;;;5082197;28;43401;-71
2023/05/25 04:11:18;;;;;;;1.27;1.27;;;20.70;69.20;;;;;;5088312;28;43735;-70
2023/05/25 04:13:47;;;;;;;1.60;1.50;;;20.60;69.50;;;;;;5087840;28;43866;-70
2023/05/25 04:16:15;;;;;;;1.60;1.57;;;20.60;69.50;;;;;;5086792;27;44492;-69
2023/05/25 04:18:43;;;;;;;1.30;1.30;;;20.60;69.40;;;;;;5087598;28;43370;-69
2023/05/25 04:21:11;;;;;;;1.33;1.33;;;20.60;69.40;;;;;;5086836;28;43435;-70
2023/05/25 04:23:39;;;;;;;1.30;1.30;;;20.60;69.50;;;;;;5087283;27;43610;-70
2023/05/25 04:26:09;;;;;;;1.60;1.60;;;20.60;69.90;;;;;;5086214;28;43362;-70
2023/05/25 04:28:40;;;;;;;2.97;1.30;;;20.60;69.80;;;;;;5086214;28;43441;-70
2023/05/25 04:31:25;;;;;;;1.30;1.30;;;20.80;69.60;;;;;;5082156;28;43434;-70
2023/05/25 04:34:13;;;;;;;1.57;1.40;;;20.90;69.20;;;;;;5079685;27;43825;-70
2023/05/25 04:36:49;;;;;;;1.30;1.30;;;20.90;69.70;;;;;;5085700;28;43414;-70
2023/05/25 04:39:17;;;;;;;1.27;1.20;;;20.90;68.80;;;;;;5095320;27;44145;-69
2023/05/25 04:41:54;;;;;;;1.23;1.23;;;20.80;68.70;;;;;;5089843;28;43584;-70
2023/05/25 04:44:24;;;;;;;1.23;1.23;;;20.80;68.80;;;;;;5082929;28;44083;-70
2023/05/25 04:46:54;;;;;;;1.20;1.20;;;20.80;69.30;;;;;;5079474;28;44758;-69
2023/05/25 04:49:40;;;;;;;1.30;1.30;;;20.70;69.40;;;;;;5088221;28;43342;-70
2023/05/25 04:52:08;;;;;;;1.17;1.17;;;20.70;69.20;;;;;;5091442;27;43410;-69
2023/05/25 04:54:37;;;;;;;1.47;1.37;;;20.70;69.30;;;;;;5080281;28;45081;-70
2023/05/25 04:57:07;;;;;;;1.40;1.40;;;20.60;69.30;;;;;;5081466;28;44758;-69
2023/05/25 04:59:36;;;;;;;4.97;1.30;;;20.60;69.80;;;;;;5081701;27;43496;-69
2023/05/25 05:02:04;;;;;;;1.40;1.40;;;20.60;69.70;;;;;;5084031;27;43530;-69
2023/05/25 05:04:32;;;;;;;1.30;1.30;;;20.50;69.40;;;;;;5081399;28;46436;-70
2023/05/25 05:07:02;;;;;;;1.40;1.40;;;20.50;69.40;;;;;;5080959;28;45691;-70
2023/05/25 05:09:30;;;;;;;1.37;1.37;;;20.60;69.60;;;;;;5080479;28;43394;-70
2023/05/25 05:12:02;;;;;;;1.50;1.40;;;20.50;69.80;;;;;;5083283;27;43465;-69
2023/05/25 05:14:37;;;;;;;1.30;1.30;;;20.60;69.90;;;;;;5082586;28;43988;-70
2023/05/25 05:17:05;;;;;;;1.30;1.30;;;20.70;69.70;;;;;;5084830;27;44090;-70
2023/05/25 05:19:33;;;;;;;1.37;1.37;;;20.80;69.30;;;;;;5079670;28;43501;-69
2023/05/25 05:22:03;;;;;;;1.30;1.30;;;20.90;69.20;;;;;;5082630;27;43575;-71
2023/05/25 05:24:31;;;;;;;1.20;1.20;;;20.90;69.00;;;;;;5078750;28;45839;-70
2023/05/25 05:27:00;;;;;;;1.10;1.10;;;20.80;68.80;;;;;;5083620;28;44986;-70
2023/05/25 05:29:42;;;;;;;1.30;1.30;;;20.80;68.90;;;;;;5078791;28;44154;-69
2023/05/25 05:32:10;;;;;;;1.37;1.37;;;20.70;69.20;;;;;;5098432;27;43996;-70
2023/05/25 05:34:39;;;;;;;1.30;1.30;;;20.60;69.40;;;;;;5083994;27;45009;-69
2023/05/25 05:37:16;;;;;;;1.50;1.50;;;20.60;69.30;;;;;;5083174;28;43992;-70
2023/05/25 05:39:44;;;;;;;1.20;1.20;;;20.60;69.30;;;;;;5087871;28;43961;-69
2023/05/25 05:42:12;;;;;;;1.30;1.30;;;20.60;69.40;;;;;;5084614;28;43468;-70
2023/05/25 05:44:40;;;;;;;1.70;1.70;;;20.50;69.70;;;;;;5081459;27;45630;-70
2023/05/25 05:47:09;;;;;;;1.23;1.23;;;20.60;69.90;;;;;;5078972;27;44715;-70
2023/05/25 05:49:38;;;;;;;1.30;1.30;;;20.60;69.60;;;;;;5080823;28;43457;-69
2023/05/25 05:52:08;;;;;;;1.20;1.20;;;20.70;69.50;;;;;;5081592;28;44429;-70
2023/05/25 05:54:36;;;;;;;1.33;1.33;;;20.70;69.20;;;;;;5081043;28;45606;-69
2023/05/25 05:57:09;;;;;;;1.40;1.40;;;20.60;69.40;;;;;;5081534;27;44125;-70
2023/05/25 05:59:37;;;;;;;1.50;1.50;;;20.60;69.60;;;;;;5079545;28;43984;-69
2023/05/25 06:02:06;;;;;;;1.40;1.40;;;20.60;69.50;;;;;;5081914;27;43400;-69
2023/05/25 06:04:37;;;;;;;1.37;1.37;;;20.50;69.20;;;;;;5078202;28;45375;-69
2023/05/25 06:07:05;;;;;;;1.40;1.40;;;20.60;69.40;;;;;;5080190;28;43421;-70
2023/05/25 06:09:33;;;;;;;1.30;1.30;;;20.50;69.40;;;;;;5099623;27;43475;-69
2023/05/25 06:12:02;;;;;;;1.20;1.20;;;20.50;69.90;;;;;;5082886;28;43442;-69
2023/05/25 06:14:30;;;;;;;1.30;1.30;;;20.60;69.90;;;;;;5082332;28;44736;-70
2023/05/25 06:17:01;;;;;;;1.57;1.57;;;20.60;69.60;;;;;;5078909;28;43371;-71
2023/05/25 06:19:29;;;;;;;1.30;1.30;;;20.60;69.40;;;;;;5080594;28;43372;-70
2023/05/25 06:21:59;;;;;;;1.50;1.50;;;20.60;69.10;;;;;;5081931;28;43523;-70
2023/05/25 06:24:27;;;;;;;1.47;1.37;;;20.60;69.60;;;;;;5079810;28;44015;-70
2023/05/25 06:26:55;;;;;;;1.43;1.43;;;20.50;69.60;;;;;;5085394;28;43485;-69
2023/05/25 06:29:23;;;;;;;1.43;1.43;;;20.60;69.40;;;;;;5087572;27;43374;-70
2023/05/25 06:31:51;;;;;;;1.50;1.50;;;20.60;69.30;;;;;;5083806;28;43660;-70
2023/05/25 06:34:19;;;;;;;1.40;1.40;;;20.50;69.30;;;;;;5078370;28;44691;-69
2023/05/25 06:36:47;;;;;;;1.43;1.43;;;20.50;69.80;;;;;;5083538;27;43480;-70
2023/05/25 06:39:17;;;;;;;1.30;1.30;;;20.50;69.70;;;;;;5080245;27;43387;-70
2023/05/25 06:41:45;;;;;;;1.77;1.77;;;20.60;69.50;;;;;;5083855;27;43477;-69
2023/05/25 06:44:25;;;;;;;1.40;1.40;;;20.60;69.30;;;;;;5077837;28;46004;-69
2023/05/25 06:46:53;;;;;;;1.60;1.60;;;20.60;69.00;;;;;;5079601;28;44743;-71
2023/05/25 06:49:21;;;;;;;1.37;1.37;;;20.60;69.50;;;;;;5080455;28;43498;-70
2023/05/25 06:51:49;;;;;;;1.30;1.30;;;20.60;69.50;;;;;;5085760;28;43449;-69
2023/05/25 06:54:19;;;;;;;1.37;1.37;;;20.60;69.30;;;;;;5083893;27;43852;-69
2023/05/25 06:56:47;;;;;;;1.50;1.47;;;20.50;69.10;;;;;;5077482;27;44383;-70
2023/05/25 06:59:17;;;;;;;1.50;1.50;;;20.60;69.30;;;;;;5079681;28;44023;-70
2023/05/25 07:01:46;;;;;;;1.40;1.40;;;20.50;69.60;;;;;;5079393;28;43612;-70
2023/05/25 07:04:14;;;;;;;1.40;1.37;;;20.50;69.60;;;;;;5078260;27;44174;-70
2023/05/25 07:06:42;;;;;;;1.43;1.33;;;20.50;69.50;;;;;;5080627;27;43971;-70
2023/05/25 07:09:10;;;;;;;1.23;1.23;;;20.50;69.50;;;;;;5084940;28;43455;-70
2023/05/25 07:11:39;;;;;;;1.40;1.40;;;20.50;69.60;;;;;;5088844;28;43441;-70
2023/05/25 07:14:07;;;;;;;1.23;1.23;;;20.40;69.90;;;;;;5086208;28;43651;-70
2023/05/25 07:16:35;;;;;;;1.50;1.50;;;20.50;70.00;;;;;;5086115;27;43441;-70
2023/05/25 07:19:04;;;;;;;1.40;1.40;;;20.60;69.70;;;;;;5084853;27;43888;-70
2023/05/25 07:21:32;;;;;;;1.40;1.40;;;20.70;69.20;;;;;;5080610;28;43366;-70
2023/05/25 07:24:00;;;;;;;1.30;1.30;;;20.80;69.10;;;;;;5079320;27;44059;-70
2023/05/25 07:26:28;;;;;;;1.53;1.40;;;20.80;68.90;;;;;;5083423;27;43495;-69
2023/05/25 07:28:57;;;;;;;1.30;1.30;;;20.70;68.80;;;;;;5079824;28;44080;-69
2023/05/25 07:31:25;;;;;;;1.40;1.40;;;20.60;68.90;;;;;;5076790;28;43400;-70
2023/05/25 07:33:54;;;;;;;1.60;1.60;;;20.60;69.00;;;;;;5082192;27;43609;-70
2023/05/25 07:36:23;;;;;;;1.20;1.20;;;20.50;69.50;;;;;;5080457;28;43347;-70
2023/05/25 07:38:51;;;;;;;1.40;1.40;;;20.50;69.40;;;;;;5081553;27;43383;-70
2023/05/25 07:41:20;;;;;;;1.30;1.30;;;20.50;69.30;;;;;;5081455;27;43442;-70
2023/05/25 07:43:48;;;;;;;1.50;1.50;;;20.50;69.40;;;;;;5080452;28;43669;-70
2023/05/25 07:46:20;;;;;;;1.37;1.37;;;20.40;69.40;;;;;;5076110;28;45587;-69
2023/05/25 07:48:48;;;;;;;1.50;1.50;;;20.40;69.90;;;;;;5076421;28;43373;-69
2023/05/25 07:51:16;;;;;;;1.50;1.50;;;20.40;69.80;;;;;;5083539;27;43907;-69
2023/05/25 07:53:44;;;;;;;1.57;1.57;;;20.50;69.60;;;;;;5078067;27;43612;-70
2023/05/25 07:56:12;;;;;;;1.20;1.20;;;20.50;69.40;;;;;;5079722;27;43519;-70
2023/05/25 07:58:40;;;;;;;1.40;1.40;;;20.50;69.30;;;;;;5078496;27;43400;-70
2023/05/25 08:01:08;;;;;;;1.30;1.30;;;20.50;69.60;;;;;;5082874;27;43434;-70
2023/05/25 08:03:37;;;;;;;1.57;1.57;;;20.40;69.60;;;;;;5081759;28;43598;-70
2023/05/25 08:06:17;;;;;;;1.40;1.30;;;20.50;69.60;;;;;;5080696;28;43441;-69
2023/05/25 08:08:45;;;;;;;1.43;1.43;;;20.40;69.40;;;;;;5075484;28;43349;-70
2023/05/25 08:11:15;;;;;;;1.27;1.27;;;20.40;69.50;;;;;;5079867;28;43402;-70
2023/05/25 08:13:43;;;;;;;1.60;1.60;;;20.40;69.80;;;;;;5080867;27;43598;-71
2023/05/25 08:16:11;;;;;;;1.30;1.30;;;20.40;69.90;;;;;;5079950;27;43503;-70
2023/05/25 08:18:42;;;;;;;1.60;1.50;;;20.50;69.70;;;;;;5079312;28;43458;-70
2023/05/25 08:21:11;;;;;;;1.40;1.40;;;20.60;69.30;;;;;;5079842;28;43647;-69
2023/05/25 08:23:41;;;;;;;1.60;1.60;;;20.70;69.10;;;;;;5078273;27;43610;-70
2023/05/25 08:26:09;;;;;;;1.73;1.63;;;20.70;69.00;;;;;;5079694;28;43468;-69
2023/05/25 08:28:57;;;;;;;1.40;1.40;;;20.70;68.90;;;;;;5080587;28;43418;-70
2023/05/25 08:31:25;;;;;;;1.30;1.30;;;20.50;68.70;;;;;;5080300;27;43494;-69
2023/05/25 08:33:54;;;;;;;1.37;1.37;;;20.50;69.00;;;;;;5078668;28;43829;-69
2023/05/25 08:36:22;;;;;;;1.40;1.40;;;20.50;69.50;;;;;;5078185;27;43485;-70
2023/05/25 08:38:50;;;;;;;1.30;1.30;;;20.50;69.50;;;;;;5080246;28;43425;-71
2023/05/25 08:41:18;;;;;;;1.50;1.50;;;20.40;69.40;;;;;;5077953;28;43557;-69
2023/05/25 08:43:46;;;;;;;1.50;1.50;;;20.40;69.40;;;;;;5076672;28;43610;-70
2023/05/25 08:46:14;;;;;;;1.30;1.30;;;20.40;69.50;;;;;;5078234;27;44627;-69
2023/05/25 08:48:42;;;;;;;1.37;1.37;;;20.40;70.10;;;;;;5076438;28;43388;-70
2023/05/25 08:51:13;;;;;;;1.30;1.30;;;20.40;69.80;;;;;;5080388;27;43487;-70
2023/05/25 08:53:41;;;;;;;1.37;1.37;;;20.30;69.60;;;;;;5076223;28;45775;-70
2023/05/25 08:56:11;;;;;;;1.40;1.40;;;20.30;69.60;;;;;;5078853;28;43907;-69
2023/05/25 08:58:44;;;;;;;1.30;1.30;;;20.30;69.70;;;;;;5082822;27;43978;-70
2023/05/25 09:01:12;;;;;;;1.20;1.20;;;20.30;69.90;;;;;;5087367;27;43348;-69
2023/05/25 09:03:40;;;;;;;1.27;1.27;;;20.40;70.10;;;;;;5087167;27;43623;-69
2023/05/25 09:06:08;;;;;;;1.30;1.30;;;20.40;69.80;;;;;;5086191;27;43506;-69
2023/05/25 09:08:38;;;;;;;1.40;1.40;;;20.60;69.50;;;;;;5087134;27;43352;-69
2023/05/25 09:11:06;;;;;;;1.37;1.37;;;20.70;69.00;;;;;;5087394;27;44182;-70
2023/05/25 09:13:34;;;;;;;1.33;1.33;;;20.70;68.90;;;;;;5086849;27;43609;-69
2023/05/25 09:16:03;;;;;;;1.30;1.30;;;20.70;68.70;;;;;;5080665;27;43365;-69
2023/05/25 09:18:31;;;;;;;1.20;1.20;;;20.60;68.70;;;;;;5082104;27;43432;-70
2023/05/25 09:20:59;;;;;;;1.30;1.30;;;20.60;68.90;;;;;;5080858;27;43455;-70
2023/05/25 09:23:27;;;;;;;1.23;1.23;;;20.50;69.30;;;;;;5085165;28;43799;-70
2023/05/25 09:25:57;;;;;;;1.40;1.40;;;20.50;69.30;;;;;;5084401;28;43450;-70
2023/05/25 09:28:25;;;;;;;1.30;1.30;;;20.40;69.20;;;;;;5079975;28;43347;-70
2023/05/25 09:30:54;;;;;;;1.33;1.33;;;20.40;69.30;;;;;;5081131;28;43352;-69
2023/05/25 09:33:22;;;;;;;1.50;1.50;;;20.40;69.50;;;;;;5081403;28;45967;-70
2023/05/25 09:35:50;;;;;;;1.40;1.40;;;20.40;69.80;;;;;;5083887;28;43335;-71
2023/05/25 09:38:18;;;;;;;1.50;1.50;;;20.40;69.80;;;;;;5083338;27;43835;-70
2023/05/25 09:40:47;;;;;;;1.30;1.30;;;20.40;69.60;;;;;;5081888;28;43451;-70
2023/05/25 09:43:17;;;;;;;1.27;1.27;;;20.30;69.50;;;;;;5084699;27;43981;-70
2023/05/25 09:46:05;;;;;;;1.40;1.40;;;20.30;69.60;;;;;;5083369;27;44095;-69
2023/05/25 09:48:33;;;;;;;1.50;1.50;;;20.30;69.90;;;;;;5082798;27;43485;-68
2023/05/25 09:51:03;;;;;;;1.40;1.40;;;20.30;70.00;;;;;;5083770;27;43441;-70
2023/05/25 09:53:31;;;;;;;1.20;1.20;;;20.40;69.80;;;;;;5081708;28;43608;-70
2023/05/25 09:56:00;;;;;;;1.33;1.33;;;20.60;69.50;;;;;;5082216;28;43435;-71
2023/05/25 09:58:32;;;;;;;1.13;1.13;;;20.60;69.10;;;;;;5080534;28;43444;-70
2023/05/25 10:01:00;;;;;;;1.30;1.30;;;20.70;69.00;;;;;;5083699;27;43374;-69
2023/05/25 10:03:28;;;;;;;1.20;1.20;;;20.60;68.80;;;;;;5077958;28;45677;-69
2023/05/25 10:05:56;;;;;;;1.30;1.30;;;20.60;68.90;;;;;;5081674;27;43575;-69
2023/05/25 10:08:24;;;;;;;1.40;1.40;;;20.60;69.10;;;;;;5086853;28;43467;-70
2023/05/25 10:10:55;;;;;;;1.30;1.30;;;20.50;69.30;;;;;;5090127;27;43418;-70
2023/05/25 10:13:23;;;;;;;1.40;1.40;;;20.40;69.30;;;;;;5089812;27;43615;-69
2023/05/25 10:15:53;;;;;;;1.30;1.30;;;20.40;69.30;;;;;;5090222;27;43500;-70
2023/05/25 10:18:24;;;;;;;1.40;1.40;;;20.40;69.40;;;;;;5088864;27;43437;-69
2023/05/25 10:21:00;;;;;;;1.30;1.30;;;20.40;69.50;;;;;;5087833;28;43411;-70
2023/05/25 10:23:29;;;;;;;1.50;1.50;;;20.40;69.80;;;;;;5088253;27;43605;-69
2023/05/25 10:25:58;;;;;;;1.20;1.20;;;20.40;69.80;;;;;;5088844;28;43563;-69
2023/05/25 10:28:28;;;;;;;1.30;1.30;;;20.30;69.60;;;;;;5089321;27;43391;-69
2023/05/25 10:30:57;;;;;;;1.43;1.43;;;20.30;69.60;;;;;;5089469;28;43921;-69
2023/05/25 10:33:27;;;;;;;1.20;1.20;;;20.30;69.70;;;;;;5087622;27;43936;-70
2023/05/25 10:35:55;;;;;;;1.20;1.20;;;20.30;69.90;;;;;;5089547;27;43342;-70
2023/05/25 10:38:39;;;;;;;1.30;1.30;;;20.30;69.80;;;;;;5084834;28;43381;-68
2023/05/25 10:41:08;;;;;;;1.30;1.30;;;20.30;69.70;;;;;;5089763;28;43472;-69
2023/05/25 10:43:37;;;;;;;1.40;1.40;;;20.30;69.80;;;;;;5089097;27;43562;-69
2023/05/25 10:46:06;;;;;;;1.33;1.33;;;20.30;69.80;;;;;;5088808;27;43881;-69
2023/05/25 10:48:38;;;;;;;1.17;1.17;;;20.30;70.10;;;;;;5089126;27;43441;-70
2023/05/25 10:51:06;;;;;;;1.30;1.30;;;20.30;70.00;;;;;;5087871;27;43472;-68
2023/05/25 10:53:38;;;;;;;1.40;1.40;;;20.40;69.80;;;;;;5088983;28;43926;-68
2023/05/25 10:56:09;;;;;;;1.40;1.40;;;20.50;69.40;;;;;;5089134;27;43356;-69
2023/05/25 10:58:38;;;;;;;1.30;1.30;;;20.70;69.10;;;;;;5088831;27;43351;-69
2023/05/25 11:01:12;;;;;;;1.23;1.20;;;20.70;68.80;;;;;;5088666;27;43412;-69
2023/05/25 11:03:56;;;;;;;1.27;1.27;;;20.70;68.80;;;;;;5087893;28;43688;-69
2023/05/25 11:07:02;;;;;;;1.50;1.50;;;20.60;68.80;;;;;;5088752;27;43427;-69
2023/05/25 11:09:30;;;;;;;1.20;1.20;;;20.50;69.00;;;;;;5077974;27;43411;-69
2023/05/25 11:12:02;;;;;;;1.40;1.40;;;20.50;69.40;;;;;;5090179;27;43460;-70
2023/05/25 11:14:31;;;;;;;1.30;1.30;;;20.50;69.40;;;;;;5088352;27;43839;-69
2023/05/25 11:17:09;;;;;;;1.33;1.33;;;20.40;69.30;;;;;;5084199;27;43379;-70
2023/05/25 11:19:45;;;;;;;1.40;1.40;;;20.40;69.40;;;;;;5088374;27;43453;-69
2023/05/25 11:22:19;;;;;;;1.40;1.40;;;20.40;69.60;;;;;;5088976;27;43423;-70
2023/05/25 11:24:48;;;;;;;1.40;1.40;;;20.40;69.80;;;;;;5088558;27;43611;-68
2023/05/25 11:27:16;;;;;;;1.50;1.50;;;20.40;69.70;;;;;;5088534;27;43538;-69
2023/05/25 11:29:44;;;;;;;1.20;1.20;;;20.30;69.60;;;;;;5088626;28;43404;-70
2023/05/25 11:32:14;;;;;;;1.30;1.30;;;20.40;69.70;;;;;;5088169;27;44309;-72
2023/05/25 11:34:46;;;;;;;1.20;1.20;;;20.30;69.70;;;;;;5088253;27;43582;-70
2023/05/25 11:37:16;;;;;;;1.10;1.10;;;20.30;70.00;;;;;;5087764;27;43494;-71
2023/05/25 11:39:46;;;;;;;1.23;1.23;;;20.40;70.80;;;;;;5087695;27;43362;-70
2023/05/25 11:42:18;;;;;;;1.20;1.20;;;20.50;69.70;;;;;;5087992;28;43364;-70
2023/05/25 11:44:46;;;;;;;1.23;1.23;;;20.60;69.40;;;;;;5087309;28;43905;-70
2023/05/25 11:47:17;;;;;;;1.30;1.30;;;20.60;68.90;;;;;;5087842;28;43305;-70
2023/05/25 11:49:48;;;;;;;1.30;1.30;;;20.60;68.90;;;;;;5086380;28;43476;-70
2023/05/25 11:52:17;;;;;;;1.40;1.40;;;20.60;69.10;;;;;;5087444;27;43612;-69
2023/05/25 11:54:45;;;;;;;1.40;1.40;;;20.50;69.10;;;;;;5088121;28;44193;-69
2023/05/25 11:57:14;;;;;;;1.40;1.40;;;20.40;69.40;;;;;;5086245;28;44744;-69
2023/05/25 11:59:47;;;;;;;1.30;1.30;;;20.40;69.50;;;;;;5087568;27;43847;-70
2023/05/25 12:02:17;;;;;;;1.30;1.30;;;20.40;69.50;;;;;;5082050;28;43416;-69
2023/05/25 12:04:52;;;;;;;1.43;1.43;;;20.40;69.50;;;;;;5087882;27;43611;-70
2023/05/25 12:07:20;;;;;;;1.30;1.30;;;20.40;69.70;;;;;;5084942;27;43499;-70
2023/05/25 12:09:48;;;;;;;1.30;1.30;;;20.30;69.80;;;;;;5088037;28;43420;-70
2023/05/25 12:12:16;;;;;;;1.20;1.20;;;20.30;69.80;;;;;;5088191;28;43334;-70
2023/05/25 12:14:47;;;;;;;1.27;1.27;;;20.30;69.80;;;;;;5088508;27;43618;-69
2023/05/25 12:17:18;;;;;;;1.40;1.40;;;20.30;69.80;;;;;;5083728;28;43471;-70
2023/05/25 12:19:46;;;;;;;1.40;1.40;;;20.30;69.80;;;;;;5087381;28;43438;-70
2023/05/25 12:22:15;;;;;;;1.40;1.40;;;20.30;69.80;;;;;;5088116;28;43360;-70
2023/05/25 12:24:43;;;;;;;1.50;1.50;;;20.30;70.20;;;;;;5082988;28;43863;-70
2023/05/25 12:27:16;;;;;;;1.20;1.20;;;20.40;70.20;;;;;;5087067;27;43367;-69
2023/05/25 12:29:45;;;;;;;1.60;1.60;;;20.50;69.90;;;;;;5086726;27;43459;-70
2023/05/25 12:32:13;;;;;;;1.30;1.30;;;20.60;69.50;;;;;;5084347;27;43378;-70
2023/05/25 12:34:43;;;;;;;1.40;1.40;;;20.60;69.20;;;;;;5087383;28;43713;-69
2023/05/25 12:37:17;;;;;;;1.30;1.30;;;20.60;68.90;;;;;;5087308;28;43453;-69
2023/05/25 12:39:45;;;;;;;1.40;1.40;;;20.60;68.90;;;;;;5087624;28;43491;-69
2023/05/25 12:42:14;;;;;;;1.40;1.40;;;20.50;69.00;;;;;;5086287;28;43556;-70
2023/05/25 12:44:43;;;;;;;1.53;1.53;;;20.50;69.30;;;;;;5087585;27;43782;-70
2023/05/25 12:47:12;;;;;;;1.73;1.60;;;20.50;70.30;;;;;;5087236;27;43413;-70
2023/05/25 12:49:41;;;;;;;1.77;1.67;;;20.40;69.40;;;;;;5087478;27;43367;-69
2023/05/25 12:52:10;;;;;;;1.80;1.70;;;20.40;69.40;;;;;;5087857;27;43438;-69
2023/05/25 12:54:43;;;;;;;3.13;2.20;;;20.40;69.50;;;;;;5087383;28;43739;-69
2023/05/25 12:57:12;;;;;;;2.47;2.30;;;20.40;69.40;;;;;;5080756;28;43418;-70
2023/05/25 12:59:41;;;;;;;3.53;2.13;;;20.40;69.40;;;;;;5084537;28;43537;-69
2023/05/25 13:02:09;;;;;;;3.87;2.20;;;20.40;69.50;;;;;;5088515;27;43441;-70